createdAt,value
2019-01-27T00:00:51.184Z,24.73
2019-01-27T00:03:59.593Z,23.90
2019-01-27T00:07:06.713Z,22.83
2019-01-27T00:10:15.172Z,20.60
2019-01-27T00:13:22.231Z,22.93
2019-01-27T00:16:30.647Z,26.40
2019-01-27T00:19:37.730Z,24.93
2019-01-27T00:25:46.181Z,24.77
2019-01-27T00:28:35.495Z,25.33
2019-01-27T00:31:42.604Z,25.10
2019-01-27T00:34:51.052Z,24.93
2019-01-27T00:37:58.237Z,28.17
2019-01-27T00:41:06.682Z,25.33
2019-01-27T00:44:13.748Z,27.63
2019-01-27T00:47:22.201Z,24.33
2019-01-27T00:50:29.321Z,24.60
2019-01-27T00:56:50.744Z,30.77
2019-01-27T01:02:57.293Z,26.37
2019-01-27T01:05:46.579Z,24.70
2019-01-27T01:08:53.702Z,24.43
2019-01-27T01:11:43.028Z,25.70
2019-01-27T01:14:50.154Z,33.40
2019-01-27T01:23:57.758Z,23.43
2019-01-27T01:27:04.845Z,23.83
2019-01-27T01:29:33.501Z,22.70
2019-01-27T01:32:02.026Z,26.47
2019-01-27T01:34:30.710Z,29.00
2019-01-27T01:36:59.384Z,26.87
2019-01-27T01:39:27.926Z,27.23
2019-01-27T01:41:56.604Z,27.23
2019-01-27T01:44:25.154Z,25.00
2019-01-27T01:46:53.824Z,24.50
2019-01-27T01:49:22.428Z,23.43
2019-01-27T01:51:51.102Z,24.33
2019-01-27T01:54:19.728Z,25.73
2019-01-27T01:56:48.358Z,24.47
2019-01-27T01:59:16.959Z,23.80
2019-01-27T02:02:04.770Z,24.47
2019-01-27T02:04:33.440Z,25.10
2019-01-27T02:07:02.009Z,27.10
2019-01-27T02:09:30.693Z,23.20
2019-01-27T02:11:59.356Z,24.33
2019-01-27T02:14:28.037Z,25.67
2019-01-27T02:16:56.678Z,24.40
2019-01-27T02:19:25.354Z,25.87
2019-01-27T02:21:54.040Z,25.07
2019-01-27T02:24:22.708Z,25.97
2019-01-27T02:26:51.322Z,24.37
2019-01-27T02:29:19.944Z,25.33
2019-01-27T02:31:48.577Z,24.37
2019-01-27T02:34:17.261Z,26.43
2019-01-27T02:36:45.885Z,25.10
2019-01-27T03:07:47.170Z,24.50
2019-01-27T03:17:25.879Z,23.17
2019-01-27T03:32:46.753Z,23.50
2019-01-27T03:42:23.752Z,20.70
2019-01-27T03:45:32.005Z,22.43
2019-01-27T03:48:38.824Z,21.07
2019-01-27T03:58:25.587Z,19.03
2019-01-27T04:51:14.457Z,22.77
2019-01-27T05:04:16.480Z,22.67
2019-01-27T05:10:18.121Z,20.67
2019-01-27T05:16:24.899Z,19.43
2019-01-27T06:42:43.870Z,14.03
2019-01-27T06:58:30.001Z,14.67
2019-01-27T07:01:58.420Z,13.63
2019-01-27T07:05:21.576Z,12.53
2019-01-27T07:22:30.686Z,13.40
2019-01-27T07:25:36.656Z,14.00
2019-01-27T07:28:44.434Z,13.60
2019-01-27T07:31:50.677Z,13.97
2019-01-27T07:34:58.571Z,14.43
2019-01-27T07:37:47.983Z,14.70
2019-01-27T07:41:11.406Z,14.37
2019-01-27T07:47:36.191Z,14.03
2019-01-27T07:50:43.700Z,14.10
2019-01-27T07:53:33.525Z,13.43
2019-01-27T07:56:54.918Z,14.40
2019-01-27T07:59:47.142Z,14.27
2019-01-27T08:03:00.767Z,15.27
2019-01-27T08:05:57.443Z,13.63
2019-01-27T08:09:11.388Z,14.23
2019-01-27T08:12:20.727Z,13.80
2019-01-27T08:15:20.181Z,14.30
2019-01-27T08:18:48.080Z,14.83
2019-01-27T08:21:54.310Z,14.73
2019-01-27T08:25:16.921Z,15.10
2019-01-27T08:28:25.152Z,15.17
2019-01-27T08:31:49.662Z,14.23
2019-01-27T08:34:55.681Z,14.83
2019-01-27T08:38:05.166Z,15.90
2019-01-27T08:41:00.836Z,15.60
2019-01-27T08:44:13.075Z,14.77
2019-01-27T08:47:03.936Z,13.53
2019-01-27T08:50:08.560Z,14.50
2019-01-27T08:52:59.196Z,14.60
2019-01-27T08:56:04.126Z,15.40
2019-01-27T08:58:51.983Z,15.07
2019-01-27T09:02:16.827Z,14.23
2019-01-27T09:05:06.335Z,13.17
2019-01-27T09:11:15.796Z,11.60
2019-01-27T09:14:03.191Z,11.37
2019-01-27T09:16:33.486Z,12.30
2019-01-27T09:19:09.651Z,13.67
2019-01-27T09:21:56.507Z,12.20
2019-01-27T09:24:42.993Z,12.03
2019-01-27T09:27:23.791Z,12.40
2019-01-27T09:29:54.026Z,12.37
2019-01-27T09:32:24.521Z,11.77
2019-01-27T09:34:57.966Z,12.87
2019-01-27T09:37:32.182Z,9.63
2019-01-27T09:40:05.608Z,12.90
2019-01-27T09:42:53.691Z,11.97
2019-01-27T09:45:32.264Z,12.50
2019-01-27T09:48:13.579Z,13.90
2019-01-27T09:50:53.998Z,14.93
2019-01-27T09:53:28.258Z,13.10
2019-01-27T09:56:01.553Z,12.20
2019-01-27T09:58:44.087Z,12.30
2019-01-27T10:01:31.155Z,13.00
2019-01-27T10:04:10.754Z,12.23
2019-01-27T10:06:47.342Z,12.33
2019-01-27T10:09:20.472Z,12.63
2019-01-27T10:11:53.922Z,11.30
2019-01-27T10:14:24.122Z,12.10
2019-01-27T10:16:57.221Z,13.03
2019-01-27T10:19:42.894Z,12.27
2019-01-27T10:22:22.070Z,12.87
2019-01-27T10:24:58.563Z,13.43
2019-01-27T10:27:31.537Z,13.67
2019-01-27T10:30:19.738Z,13.07
2019-01-27T10:32:52.833Z,14.17
2019-01-27T10:35:26.003Z,13.97
2019-01-27T10:38:02.346Z,11.73
2019-01-27T10:40:39.655Z,13.17
2019-01-27T10:43:07.471Z,18.13
2019-01-27T10:45:40.532Z,12.47
2019-01-27T10:48:13.813Z,11.70
2019-01-27T10:50:55.783Z,12.53
2019-01-27T10:53:52.595Z,11.67
2019-01-27T10:56:31.926Z,12.03
2019-01-27T10:59:02.176Z,13.57
2019-01-27T11:01:38.493Z,13.70
2019-01-27T11:04:11.807Z,12.67
2019-01-27T11:06:53.685Z,11.27
2019-01-27T11:09:30.105Z,12.20
2019-01-27T11:12:06.400Z,11.10
2019-01-27T11:14:39.661Z,11.40
2019-01-27T11:17:25.114Z,10.47
2019-01-27T11:19:57.908Z,11.73
2019-01-27T11:22:35.561Z,12.63
2019-01-27T11:25:12.914Z,12.03
2019-01-27T11:27:49.229Z,11.53
2019-01-27T11:30:19.499Z,11.50
2019-01-27T11:32:52.781Z,12.33
2019-01-27T11:35:23.042Z,10.33
2019-01-27T11:37:59.060Z,10.73
2019-01-27T11:40:32.194Z,11.07
2019-01-27T11:43:08.445Z,10.57
2019-01-27T11:45:38.642Z,8.37
2019-01-27T11:48:11.894Z,10.10
2019-01-27T11:50:42.175Z,10.10
2019-01-27T11:53:10.833Z,11.70
2019-01-27T11:55:39.459Z,11.70
2019-01-27T11:58:10.966Z,9.90
2019-01-27T12:00:41.291Z,10.30
2019-01-27T12:03:09.832Z,9.97
2019-01-27T12:05:38.465Z,9.33
2019-01-27T12:08:07.134Z,7.23
2019-01-27T12:10:35.687Z,8.20
2019-01-27T12:13:04.552Z,8.57
2019-01-27T12:15:33.307Z,8.83
2019-01-27T12:18:01.928Z,9.00
2019-01-27T12:20:30.550Z,9.50
2019-01-27T12:22:59.072Z,8.67
2019-01-27T12:25:27.715Z,9.13
2019-01-27T12:27:56.275Z,9.43
2019-01-27T12:30:25.008Z,9.03
2019-01-27T12:32:59.347Z,8.87
2019-01-27T12:35:27.973Z,10.43
2019-01-27T12:37:56.638Z,9.10
2019-01-27T12:40:25.862Z,9.30
2019-01-27T12:42:54.528Z,8.63
2019-01-27T12:45:23.179Z,9.47
2019-01-27T12:47:51.843Z,9.03
2019-01-27T12:50:21.085Z,9.10
2019-01-27T12:52:52.209Z,9.60
2019-01-27T12:55:23.836Z,8.53
2019-01-27T12:57:52.383Z,8.60
2019-01-27T13:00:39.376Z,8.30
2019-01-27T13:03:10.674Z,8.37
2019-01-27T13:05:39.353Z,8.97
2019-01-27T13:08:13.362Z,9.10
2019-01-27T13:10:42.537Z,8.73
2019-01-27T13:13:12.148Z,7.93
2019-01-27T13:15:40.841Z,8.97
2019-01-27T13:18:09.512Z,9.17
2019-01-27T13:20:38.187Z,9.20
2019-01-27T13:23:06.809Z,9.33
2019-01-27T13:25:38.374Z,9.33
2019-01-27T13:28:09.754Z,9.47
2019-01-27T13:30:41.072Z,7.95
2019-01-27T13:33:09.767Z,8.10
2019-01-27T13:35:38.930Z,9.23
2019-01-27T13:38:07.685Z,8.70
2019-01-27T13:40:36.404Z,8.97
2019-01-27T13:43:05.191Z,8.53
2019-01-27T13:45:33.930Z,7.93
2019-01-27T13:48:02.546Z,9.00
2019-01-27T13:50:31.202Z,11.23
2019-01-27T13:52:59.855Z,11.97
2019-01-27T13:55:32.735Z,11.63
2019-01-27T13:58:01.521Z,11.93
2019-01-27T14:00:41.949Z,12.03
2019-01-27T14:03:10.658Z,13.67
2019-01-27T14:05:42.244Z,13.70
2019-01-27T14:08:13.925Z,15.07
2019-01-27T14:10:45.278Z,14.23
2019-01-27T14:13:15.077Z,14.67
2019-01-27T14:15:44.376Z,14.40
2019-01-27T14:18:13.359Z,14.43
2019-01-27T14:20:42.007Z,14.67
2019-01-27T14:23:10.695Z,15.40
2019-01-27T14:25:39.321Z,12.27
2019-01-27T14:28:07.951Z,13.87
2019-01-27T14:30:39.422Z,13.30
2019-01-27T14:33:11.333Z,13.50
2019-01-27T14:35:52.214Z,12.30
2019-01-27T14:38:23.902Z,13.70
2019-01-27T14:40:52.588Z,12.93
2019-01-27T14:43:21.208Z,13.50
2019-01-27T14:45:49.881Z,16.73
2019-01-27T14:48:18.569Z,18.07
2019-01-27T14:50:48.893Z,21.10
2019-01-27T14:53:17.569Z,29.23
2019-01-27T14:55:47.017Z,30.70
2019-01-27T14:58:15.682Z,29.00
2019-01-27T15:00:45.484Z,29.80
2019-01-27T15:03:14.510Z,29.77
2019-01-27T15:05:43.180Z,23.33
2019-01-27T15:08:11.818Z,23.67
2019-01-27T15:10:43.220Z,23.80
2019-01-27T15:13:11.852Z,25.40
2019-01-27T15:15:40.732Z,29.93
2019-01-27T15:18:12.147Z,31.57
2019-01-27T15:20:46.322Z,33.63
2019-01-27T15:23:14.962Z,32.50
2019-01-27T15:25:43.609Z,33.37
2019-01-27T15:28:12.236Z,36.37
2019-01-27T15:30:43.768Z,42.17
2019-01-27T15:33:15.627Z,35.40
2019-01-27T15:35:44.307Z,45.37
2019-01-27T15:38:12.947Z,47.43
2019-01-27T15:40:41.628Z,43.97
2019-01-27T15:43:10.206Z,37.83
2019-01-27T15:45:38.850Z,40.33
2019-01-27T15:48:07.530Z,38.20
2019-01-27T15:50:36.860Z,41.03
2019-01-27T15:53:06.782Z,50.50
2019-01-27T15:55:39.363Z,49.50
2019-01-27T15:58:08.052Z,56.27
2019-01-27T16:00:36.814Z,58.20
2019-01-27T16:03:08.632Z,60.37
2019-01-27T16:05:40.086Z,65.20
2019-01-27T16:08:08.720Z,62.43
2019-01-27T16:10:37.355Z,57.10
2019-01-27T16:13:06.037Z,58.23
2019-01-27T16:15:36.353Z,54.53
2019-01-27T16:18:06.652Z,51.27
2019-01-27T16:20:35.287Z,53.57
2019-01-27T16:23:11.266Z,54.30
2019-01-27T16:25:41.457Z,56.50
2019-01-27T16:28:10.284Z,59.57
2019-01-27T16:30:58.071Z,60.47
2019-01-27T16:33:43.575Z,61.63
2019-01-27T16:36:12.280Z,64.47
2019-01-27T16:38:40.903Z,55.90
2019-01-27T16:41:09.589Z,58.23
2019-01-27T16:43:38.255Z,62.23
2019-01-27T16:46:07.042Z,51.70
2019-01-27T16:48:36.908Z,54.50
2019-01-27T16:51:05.725Z,53.70
2019-01-27T16:53:34.515Z,57.47
2019-01-27T16:56:06.291Z,61.90
2019-01-27T16:58:34.914Z,69.80
2019-01-27T17:01:04.151Z,71.13
2019-01-27T17:03:35.952Z,65.20
2019-01-27T17:06:05.473Z,68.03
2019-01-27T17:08:34.082Z,67.80
2019-01-27T17:11:02.721Z,67.97
2019-01-27T17:13:31.517Z,70.73
2019-01-27T17:16:00.624Z,71.80
2019-01-27T17:18:32.002Z,73.83
2019-01-27T17:21:00.646Z,99.73
2019-01-27T17:23:43.828Z,81.67
2019-01-27T17:26:12.463Z,59.17
2019-01-27T17:28:41.198Z,57.97
2019-01-27T17:31:12.832Z,57.03
2019-01-27T17:33:41.452Z,57.17
2019-01-27T17:36:10.134Z,58.13
2019-01-27T17:38:42.191Z,63.73
2019-01-27T17:41:10.895Z,60.17
2019-01-27T17:43:39.516Z,73.17
2019-01-27T17:46:14.069Z,76.40
2019-01-27T17:48:42.698Z,80.40
2019-01-27T17:51:11.469Z,76.43
2019-01-27T17:53:44.712Z,70.03
2019-01-27T17:56:19.963Z,60.30
2019-01-27T17:58:54.378Z,59.57
2019-01-27T18:01:24.969Z,56.90
2019-01-27T18:03:55.252Z,56.63
2019-01-27T18:06:42.002Z,49.73
2019-01-27T18:09:13.038Z,43.33
2019-01-27T18:11:43.396Z,43.50
2019-01-27T18:14:13.735Z,38.50
2019-01-27T18:16:46.901Z,39.97
2019-01-27T18:19:15.569Z,35.37
2019-01-27T18:21:44.197Z,35.77
2019-01-27T18:24:12.959Z,37.43
2019-01-27T18:26:41.780Z,35.13
2019-01-27T18:29:10.440Z,34.90
2019-01-27T18:31:44.316Z,37.30
2019-01-27T18:34:13.226Z,35.47
2019-01-27T18:36:41.903Z,35.67
2019-01-27T18:39:14.923Z,36.43
2019-01-27T18:41:48.476Z,38.50
2019-01-27T18:44:25.723Z,37.70
2019-01-27T18:46:54.449Z,41.30
2019-01-27T18:49:28.821Z,43.43
2019-01-27T18:51:57.514Z,43.80
2019-01-27T18:54:35.715Z,42.80
2019-01-27T18:57:13.270Z,45.37
2019-01-27T18:59:43.604Z,41.67
2019-01-27T19:02:32.585Z,40.30
2019-01-27T19:05:17.383Z,38.13
2019-01-27T19:07:47.705Z,39.90
2019-01-27T19:10:22.250Z,40.23
2019-01-27T19:12:52.622Z,41.67
2019-01-27T19:15:34.036Z,47.77
2019-01-27T19:18:22.777Z,53.40
2019-01-27T19:20:56.872Z,44.57
2019-01-27T19:23:45.095Z,46.47
2019-01-27T19:26:37.174Z,41.27
2019-01-27T19:29:26.621Z,41.93
2019-01-27T19:31:57.002Z,45.17
2019-01-27T19:34:36.081Z,46.07
2019-01-27T19:37:16.850Z,44.83
2019-01-27T19:39:51.352Z,40.23
2019-01-27T19:42:22.707Z,39.57
2019-01-27T19:45:09.570Z,41.23
2019-01-27T19:47:45.332Z,46.07
2019-01-27T19:50:19.824Z,43.07
2019-01-27T19:52:57.648Z,45.27
2019-01-27T19:55:44.582Z,56.93
2019-01-27T19:58:25.390Z,58.90
2019-01-27T20:00:58.831Z,66.33
2019-01-27T20:03:30.148Z,64.23
2019-01-27T20:06:02.153Z,71.17
2019-01-27T20:08:41.452Z,80.57
2019-01-27T20:11:27.855Z,87.47
2019-01-27T20:14:00.964Z,90.43
2019-01-27T20:16:31.299Z,87.37
2019-01-27T20:19:05.457Z,87.13
2019-01-27T20:21:37.044Z,84.47
2019-01-27T20:24:10.193Z,91.10
2019-01-27T20:26:49.713Z,95.10
2019-01-27T20:29:36.287Z,95.90
2019-01-27T20:32:13.258Z,90.57
2019-01-27T20:34:52.452Z,89.73
2019-01-27T20:37:29.171Z,89.60
2019-01-27T20:39:59.394Z,89.90
2019-01-27T20:42:43.222Z,86.13
2019-01-27T20:45:15.018Z,86.60
2019-01-27T20:47:45.384Z,91.17
2019-01-27T20:50:16.769Z,96.97
2019-01-27T20:52:53.736Z,96.10
2019-01-27T20:55:24.078Z,126.33
2019-01-27T20:57:57.850Z,111.97
2019-01-27T21:00:38.057Z,109.60
2019-01-27T21:03:24.709Z,98.57
2019-01-27T21:05:55.049Z,96.57
2019-01-27T21:08:28.484Z,96.43
2019-01-27T21:11:09.203Z,99.13
2019-01-27T21:13:51.284Z,91.63
2019-01-27T21:16:22.702Z,88.30
2019-01-27T21:18:56.850Z,87.57
2019-01-27T21:21:26.285Z,88.23
2019-01-27T21:23:54.905Z,82.33
2019-01-27T21:26:29.801Z,85.50
2019-01-27T21:28:59.137Z,89.30
2019-01-27T21:31:27.756Z,88.90
2019-01-27T21:33:56.387Z,81.17
2019-01-27T21:36:25.021Z,90.70
2019-01-27T21:38:53.572Z,85.50
2019-01-27T21:41:22.257Z,83.97
2019-01-27T21:43:54.939Z,79.50
2019-01-27T21:46:23.526Z,80.53
2019-01-27T21:48:58.230Z,80.07
2019-01-27T21:51:38.070Z,76.40
2019-01-27T21:54:06.713Z,74.63
2019-01-27T21:56:35.425Z,76.73
2019-01-27T21:59:04.456Z,74.17
2019-01-27T22:01:39.191Z,73.07
2019-01-27T22:04:07.827Z,76.77
2019-01-27T22:06:36.524Z,73.73
2019-01-27T22:09:08.033Z,70.27
2019-01-27T22:11:39.458Z,72.30
2019-01-27T22:14:09.203Z,65.47
2019-01-27T22:16:42.115Z,68.67
2019-01-27T22:19:10.805Z,58.37
2019-01-27T22:21:41.038Z,73.80
2019-01-27T22:24:09.662Z,82.47
2019-01-27T22:26:38.365Z,80.13
2019-01-27T22:29:06.967Z,81.43
2019-01-27T22:31:41.878Z,79.77
2019-01-27T22:34:10.436Z,73.53
2019-01-27T22:36:39.083Z,76.27
2019-01-27T22:39:08.949Z,70.30
2019-01-27T22:41:37.511Z,70.33
2019-01-27T22:44:06.201Z,78.37
2019-01-27T22:46:34.842Z,73.60
2019-01-27T22:49:03.493Z,75.50
2019-01-27T22:51:32.154Z,80.77
2019-01-27T22:54:00.824Z,76.47
2019-01-27T22:56:29.460Z,77.63
2019-01-27T22:58:58.145Z,79.27
2019-01-27T23:01:26.884Z,80.93
2019-01-27T23:03:55.562Z,78.47
2019-01-27T23:06:30.343Z,80.43
2019-01-27T23:08:58.935Z,83.53
2019-01-27T23:11:30.105Z,91.43
2019-01-27T23:13:58.789Z,108.93
2019-01-27T23:16:27.431Z,105.67
2019-01-27T23:18:56.103Z,109.87
2019-01-27T23:21:24.755Z,103.00
2019-01-27T23:23:54.102Z,105.67
2019-01-27T23:26:24.353Z,106.60
2019-01-27T23:28:52.997Z,107.03
2019-01-27T23:31:21.676Z,107.90
2019-01-27T23:33:50.247Z,90.13
2019-01-27T23:36:18.933Z,95.97
2019-01-27T23:38:47.562Z,97.60
2019-01-27T23:41:16.172Z,110.50
2019-01-27T23:43:44.812Z,114.63
2019-01-27T23:46:13.382Z,120.73
2019-01-27T23:48:42.161Z,124.07
2019-01-27T23:51:24.053Z,116.03
2019-01-27T23:53:55.442Z,114.43
2019-01-27T23:56:29.884Z,122.13
2019-01-27T23:58:58.533Z,111.13
